WetterOnline ( https://www.wetteronline.ch )

Wetter aktuell Emden

Aktuelles Wetter: Emden (5m)

6-stündlich | Neueste Meldungen
Ortszeit Temperatur Wetter
Mo, 13.07. 14:00 20.0° C wolkig
Mo, 13.07. 8:00 12.6° C bedeckt
Mo, 13.07. 2:00 9.9° C wolkenlos
So, 12.07. 20:00 16.4° C leicht bewölkt
So, 12.07. 14:00 18.7° C leicht bewölkt
So, 12.07. 8:00 13.4° C wolkig
So, 12.07. 2:00 10.4° C wolkenlos
Sa, 11.07. 20:00 15.9° C fast wolkenlos
Ortszeit Temperatur Wetter
Mo, 13.07. 19:30 21.4° C wolkig
Mo, 13.07. 19:20 21.4° C wolkig
Mo, 13.07. 19:10 21.9° C wolkig
Mo, 13.07. 19:00 21.5° C leicht bewölkt
Mo, 13.07. 18:50 21.5° C wolkig
Mo, 13.07. 18:40 21.8° C wolkig
Mo, 13.07. 18:30 21.6° C wolkig
Mo, 13.07. 18:00 22.0° C wolkig
Mo, 13.07. 16:00 21.6° C wolkig
Ortszeit Relative Feuchte Sichtweite
Mo, 13.07. 14:00 53% 35 km
Mo, 13.07. 8:00 96% 20 km
Mo, 13.07. 2:00 99% 2.2 km
So, 12.07. 20:00 62% 40 km
So, 12.07. 14:00 55% 50 km
So, 12.07. 8:00 85% 40 km
So, 12.07. 2:00 95% 35 km
Sa, 11.07. 20:00 64% 40 km
Ortszeit Relative Feuchte Sichtweite
Mo, 13.07. 19:30 47% 50 km
Mo, 13.07. 19:20 47% -
Mo, 13.07. 19:10 48% -
Mo, 13.07. 19:00 45% >70 km
Mo, 13.07. 18:50 45% -
Mo, 13.07. 18:40 45% -
Mo, 13.07. 18:30 45% 55 km
Mo, 13.07. 18:00 44% >70 km
Mo, 13.07. 16:00 49% 65 km
Ortszeit Niederschlagsmenge Niederschlagsart
Mo, 13.07. 14:00 0.0 l/m2 in 6 Std. -
Mo, 13.07. 8:00 0.0 l/m2 in 12 Std. -
Mo, 13.07. 2:00 0.0 l/m2 in 6 Std. -
So, 12.07. 20:00 0.0 l/m2 in 12 Std. -
So, 12.07. 14:00 0.0 l/m2 in 6 Std. -
So, 12.07. 8:00 0.0 l/m2 in 12 Std. -
So, 12.07. 2:00 0.0 l/m2 in 6 Std. -
Sa, 11.07. 20:00 2 l/m2 in 12 Std. -
Ortszeit Niederschlagsmenge Niederschlagsart
Mo, 13.07. 19:30 0.0 l/m2 in 1 Std. -
Mo, 13.07. 19:20 keine Meldung -
Mo, 13.07. 19:10 keine Meldung -
Mo, 13.07. 19:00 0.0 l/m2 in 1 Std. -
Mo, 13.07. 18:50 keine Meldung -
Mo, 13.07. 18:40 keine Meldung -
Mo, 13.07. 18:30 0.0 l/m2 in 1 Std. -
Mo, 13.07. 18:00 0.0 l/m2 in 1 Std. -
Mo, 13.07. 16:00 keine Meldung -
Ortszeit Stärke Spitze Richtung
km/h Bft. km/h Grad Sektor
Mo, 13.07. 14:00 9 2 24 200° S
Mo, 13.07. 8:00 0 0 7 - -
Mo, 13.07. 2:00 4 1 14 170° S
So, 12.07. 20:00 11 2 31 330° NW
So, 12.07. 14:00 14 3 29 270° W
So, 12.07. 8:00 7 2 14 270° W
So, 12.07. 2:00 4 1 18 260° W
Sa, 11.07. 20:00 11 2 32 320° NW
Ortszeit Stärke Spitze Richtung
km/h Bft. km/h Grad Sektor
Mo, 13.07. 19:30 9 2 17 280° W
Mo, 13.07. 19:20 9 2 - 280° W
Mo, 13.07. 19:10 7 2 - 240° SW
Mo, 13.07. 19:00 7 2 22 240° SW
Mo, 13.07. 18:50 7 2 - 240° SW
Mo, 13.07. 18:40 7 2 - 260° W
Mo, 13.07. 18:30 11 2 22 260° W
Mo, 13.07. 18:00 14 3 22 270° W
Mo, 13.07. 16:00 11 2 29 220° SW
Ortszeit Untergrenze Bedeckung Gattung
total tief tief mittel hoch
Mo, 13.07. 14:00 1320 m 6/8 5/8 - - -
Mo, 13.07. 8:00 5100 m 8/8 8/8 - - -
Mo, 13.07. 2:00 - 0/8 0/8 - - -
So, 12.07. 20:00 8100 m 7/8 0/8 - - -
So, 12.07. 14:00 1140 m 4/8 4/8 - - -
So, 12.07. 8:00 750 m 5/8 5/8 - - -
So, 12.07. 2:00 - 0/8 0/8 - - -
Sa, 11.07. 20:00 930 m 1/8 1/8 - - -
Ortszeit Bedeckungsgrad in Achtel und Wolkenuntergrenze
Mo, 13.07. 19:30 2(1500m) 5(8100m) 7(10500m)
Mo, 13.07. 19:20 2(1500m) 5(8100m) 7(10500m)
Mo, 13.07. 19:10 3(1500m) 6(8400m) 7(10500m)
Mo, 13.07. 19:00 4(8400m) 6(9000m) 7(10500m)
Mo, 13.07. 18:50 4(8400m) 6(9000m) 7(10500m)
Mo, 13.07. 18:40 4(8700m) 4(9000m) 7(10500m)
Mo, 13.07. 18:30 5(9000m) 5(10500m) 7(10500m)
Mo, 13.07. 18:00 4(1500m) 5(9000m) 5(10500m)
Mo, 13.07. 16:00 2(1470m) 7(6300m)
Ortszeit Luftdruck NN (hPa) Tendenz (hPa in 3 Std.)
Mo, 13.07. 14:00 1023 - 1,7
Mo, 13.07. 8:00 1026 0,0
Mo, 13.07. 2:00 1027 - 1,0
So, 12.07. 20:00 1028 - 0,5
So, 12.07. 14:00 1029 + 0,2
So, 12.07. 8:00 1028 + 0,8
So, 12.07. 2:00 1027 + 0,4
Sa, 11.07. 20:00 1025 + 0,7
Ortszeit Luftdruck NN (hPa) Tendenz (hPa in 3 Std.)
Mo, 13.07. 19:30 1020 - 1,9
Mo, 13.07. 19:20 1020 keine Meldung
Mo, 13.07. 19:10 1020 keine Meldung
Mo, 13.07. 19:00 1020 - 1,9
Mo, 13.07. 18:50 1020 keine Meldung
Mo, 13.07. 18:40 1020 keine Meldung
Mo, 13.07. 18:30 1020 - 1,9
Mo, 13.07. 18:00 1021 - 1,9
Mo, 13.07. 16:00 1022 - 2,0
Ortszeit Schneehöhe (cm)
Mo, 13.07. 14:00 -
Mo, 13.07. 8:00 -
Mo, 13.07. 2:00 -
So, 12.07. 20:00 -
So, 12.07. 14:00 -
So, 12.07. 8:00 -
So, 12.07. 2:00 -
Sa, 11.07. 20:00 -
Ortszeit Schneehöhe (cm)
Mo, 13.07. 19:30 -
Mo, 13.07. 19:20 -
Mo, 13.07. 19:10 -
Mo, 13.07. 19:00 -
Mo, 13.07. 18:50 -
Mo, 13.07. 18:40 -
Mo, 13.07. 18:30 -
Mo, 13.07. 18:00 -
Mo, 13.07. 16:00 -
Link zu dieser Seite / Seite empfehlen

Das Wetter in ...